Time;durP1;ratioP1;P1;durP2;ratioP2;P2;SDS_P1;SDS_P2;PMS_P1;PMS_P2;Temp;Humidity;BMP_temperature;BMP_pressure;BME280_temperature;BME280_humidity;BME280_pressure;Samples;Min_cycle;Max_cycle;Signal;HPM_P1;HPM_P2
2022/10/11 00:01:02;;;;;;;16.45;2.72;;;;;;;13.65;76.20;101846.41;6276220;22;20530;-67
2022/10/11 00:03:29;;;;;;;15.15;2.55;;;;;;;13.62;75.71;101833.13;6278175;22;20030;-68
2022/10/11 00:05:57;;;;;;;14.55;2.60;;;;;;;13.81;75.28;101842.19;6277282;22;20387;-68
2022/10/11 00:08:24;;;;;;;11.80;3.10;;;;;;;13.84;75.33;101849.88;6277691;22;20020;-68
2022/10/11 00:10:56;;;;;;;16.70;2.92;;;;;;;13.86;74.71;101837.34;6250603;22;20510;-67
2022/10/11 00:13:24;;;;;;;13.88;2.20;;;;;;;13.77;74.92;101841.16;6277938;22;20412;-69
2022/10/11 00:15:52;;;;;;;13.35;2.20;;;;;;;14.04;74.21;101830.06;6276647;22;20016;-68
2022/10/11 00:18:20;;;;;;;9.77;2.30;;;;;;;14.09;73.36;101839.09;6287556;22;20479;-68
2022/10/11 00:20:47;;;;;;;13.00;2.50;;;;;;;14.13;73.19;101842.91;6277232;22;20011;-69
2022/10/11 00:23:15;;;;;;;16.27;2.97;;;;;;;13.90;73.15;101843.09;6276794;22;20043;-69
2022/10/11 00:25:42;;;;;;;17.50;2.78;;;;;;;13.76;73.76;101848.63;6277227;22;20016;-68
2022/10/11 00:28:09;;;;;;;15.07;3.10;;;;;;;13.77;73.70;101852.25;6277399;22;20034;-69
2022/10/11 00:30:41;;;;;;;18.38;3.47;;;;;;;13.30;75.40;101854.22;6277112;22;20486;-68
2022/10/11 00:33:09;;;;;;;14.45;2.50;;;;;;;13.41;75.54;101852.91;6277898;22;20026;-68
2022/10/11 00:35:40;;;;;;;15.23;3.05;;;;;;;13.57;75.04;101853.44;6248900;22;20024;-67
2022/10/11 00:38:07;;;;;;;20.48;2.88;;;;;;;13.60;74.28;101863.09;6250856;22;20019;-69
2022/10/11 00:40:34;;;;;;;11.60;2.60;;;;;;;13.42;74.45;101848.22;6248487;22;20034;-61
2022/10/11 00:43:02;;;;;;;14.63;3.05;;;;;;;13.43;74.84;101861.75;6277323;22;20493;-62
2022/10/11 00:45:29;;;;;;;11.30;2.63;;;;;;;13.40;74.77;101864.28;6276499;22;20030;-60
2022/10/11 00:48:01;;;;;;;15.25;2.70;;;;;;;13.26;75.16;101861.50;6277624;22;20035;-59
2022/10/11 00:50:32;;;;;;;11.02;2.42;;;;;;;13.49;74.94;101868.81;6224050;22;20636;-60
2022/10/11 00:53:02;;;;;;;12.25;3.42;;;;;;;13.64;74.18;101862.19;6250213;22;20027;-61
2022/10/11 00:55:34;;;;;;;14.88;2.63;;;;;;;13.54;73.49;101863.19;6276628;22;20427;-60
2022/10/11 00:58:01;;;;;;;15.00;2.40;;;;;;;13.44;74.07;101866.13;6277714;22;20016;-60
2022/10/11 01:00:29;;;;;;;12.93;3.15;;;;;;;13.38;73.57;101856.31;6250126;22;20081;-60
2022/10/11 01:02:56;;;;;;;12.15;3.22;;;;;;;13.21;74.30;101861.59;6277163;22;20946;-60
2022/10/11 01:05:23;;;;;;;14.05;2.38;;;;;;;13.21;74.41;101867.13;6225188;22;20016;-60
2022/10/11 01:07:59;;;;;;;11.95;2.85;;;;;;;13.25;74.01;101861.81;6252053;22;20026;-60
2022/10/11 01:10:27;;;;;;;16.38;2.40;;;;;;;13.26;73.31;101867.03;6277504;22;20553;-61
2022/10/11 01:13:17;;;;;;;19.35;2.78;;;;;;;13.27;73.45;101857.59;6250352;22;20443;-61
2022/10/11 01:15:49;;;;;;;18.63;3.10;;;;;;;13.12;73.66;101865.34;6249954;22;20019;-64
2022/10/11 01:18:37;;;;;;;14.02;2.22;;;;;;;13.09;73.83;101858.47;6251072;22;20015;-60
2022/10/11 01:21:18;;;;;;;14.00;2.58;;;;;;;13.20;73.46;101864.63;6256150;22;20016;-61
2022/10/11 01:23:54;;;;;;;15.18;2.60;;;;;;;13.27;72.90;101862.31;6252213;22;20039;-60
2022/10/11 01:26:32;;;;;;;16.02;3.35;;;;;;;13.26;72.86;101858.72;6225484;22;20030;-61
2022/10/11 01:29:21;;;;;;;11.23;2.22;;;;;;;13.17;72.95;101871.63;6252554;22;20022;-60
2022/10/11 01:32:00;;;;;;;13.70;2.65;;;;;;;12.94;73.24;101872.50;6279111;22;20012;-60
2022/10/11 01:34:36;;;;;;;15.43;2.60;;;;;;;12.90;73.23;101868.69;6279630;22;20020;-61
2022/10/11 01:37:29;;;;;;;18.75;2.80;;;;;;;12.91;73.16;101866.75;6252278;22;20033;-60
2022/10/11 01:40:02;;;;;;;14.50;2.92;;;;;;;12.89;73.28;101869.00;6246714;22;20019;-60
2022/10/11 01:42:30;;;;;;;15.90;2.60;;;;;;;12.88;73.09;101868.19;6239194;23;20017;-61
2022/10/11 01:44:58;;;;;;;16.15;2.42;;;;;;;12.69;73.62;101870.16;6217777;23;20016;-60
2022/10/11 01:47:25;;;;;;;16.08;2.92;;;;;;;12.59;73.95;101864.75;6216691;23;20028;-61
2022/10/11 01:49:58;;;;;;;17.55;2.65;;;;;;;12.61;74.30;101861.69;6218389;23;20019;-61
2022/10/11 01:52:28;;;;;;;13.32;2.63;;;;;;;12.79;73.65;101871.94;6218109;23;20457;-61
2022/10/11 01:55:27;;;;;;;16.65;2.95;;;;;;;12.80;73.03;101859.75;6216053;23;20020;-61
2022/10/11 01:58:26;;;;;;;11.45;2.55;;;;;;;12.85;73.18;101862.44;6191075;23;20024;-60
2022/10/11 02:01:16;;;;;;;12.18;2.45;;;;;;;12.97;72.29;101862.81;6217885;23;20017;-60
2022/10/11 02:04:01;;;;;;;19.73;3.13;;;;;;;12.88;71.99;101861.84;6218398;23;20023;-60
2022/10/11 02:06:34;;;;;;;19.60;2.78;;;;;;;12.94;71.63;101863.38;6214982;23;20024;-60
2022/10/11 02:09:15;;;;;;;19.92;2.53;;;;;;;12.99;71.40;101864.13;6216851;23;20448;-60
2022/10/11 02:11:43;;;;;;;15.43;2.80;;;;;;;12.78;71.84;101865.56;6189713;23;20016;-60
2022/10/11 02:14:25;;;;;;;12.27;2.25;;;;;;;12.94;71.44;101866.16;6217972;23;20024;-60
2022/10/11 02:17:07;;;;;;;26.08;2.42;;;;;;;12.94;71.04;101860.63;6190322;23;20020;-60
2022/10/11 02:19:37;;;;;;;13.50;2.55;;;;;;;12.98;70.71;101862.50;6212036;23;20024;-62
2022/10/11 02:22:05;;;;;;;;;;;;;;;12.90;71.25;101862.38;6215694;23;20019;-61
2022/10/11 02:24:35;;;;;;;13.48;2.92;;;;;;;12.87;71.90;101855.47;6216424;23;20029;-60
2022/10/11 02:27:03;;;;;;;15.13;2.58;;;;;;;12.74;71.32;101860.97;6215831;23;20016;-60
2022/10/11 02:29:33;;;;;;;14.88;2.72;;;;;;;12.64;72.10;101859.16;6218125;23;20035;-61
2022/10/11 02:32:00;;;;;;;15.05;2.90;;;;;;;12.73;71.93;101860.13;6215740;23;20012;-61
2022/10/11 02:34:35;;;;;;;12.85;2.80;;;;;;;12.61;71.62;101864.47;6215977;23;20486;-61
2022/10/11 02:37:05;;;;;;;21.10;3.25;;;;;;;12.56;72.09;101868.13;6191295;23;20017;-61
2022/10/11 02:39:41;;;;;;;16.25;2.47;;;;;;;12.50;72.32;101865.75;6217545;23;20020;-62
2022/10/11 02:42:21;;;;;;;11.27;2.22;;;;;;;12.66;71.87;101865.22;6223897;22;20550;-61
2022/10/11 02:45:02;;;;;;;15.30;2.85;;;;;;;12.64;71.65;101870.22;6251905;22;20289;-61
2022/10/11 02:47:30;;;;;;;12.02;1.90;;;;;;;12.55;71.90;101860.97;6251293;22;20039;-61
2022/10/11 02:50:01;;;;;;;15.32;2.70;;;;;;;12.75;71.12;101866.19;6278798;22;20031;-61
2022/10/11 02:52:28;;;;;;;15.40;2.90;;;;;;;12.90;70.49;101863.16;6278873;22;20014;-60
2022/10/11 02:54:55;;;;;;;17.33;2.92;;;;;;;12.84;70.48;101869.91;6278208;22;20026;-60
2022/10/11 02:57:22;;;;;;;15.88;2.65;;;;;;;12.82;70.46;101865.78;6278453;22;20030;-62
2022/10/11 02:59:50;;;;;;;18.00;3.30;;;;;;;12.75;70.13;101865.34;6278500;22;20012;-61
2022/10/11 03:02:17;;;;;;;15.73;2.65;;;;;;;12.82;69.97;101868.56;6226085;22;20023;-61
2022/10/11 03:04:45;;;;;;;19.90;3.10;;;;;;;12.73;70.49;101862.06;6278961;22;20631;-63
2022/10/11 03:07:13;;;;;;;16.85;2.67;;;;;;;12.86;69.85;101864.91;6250832;22;20042;-60
2022/10/11 03:09:41;;;;;;;16.88;3.45;;;;;;;12.71;70.51;101867.91;6278077;22;20046;-62
2022/10/11 03:12:08;;;;;;;15.57;2.80;;;;;;;12.71;70.56;101878.16;6250318;22;20016;-60
2022/10/11 03:14:35;;;;;;;13.15;2.67;;;;;;;12.51;70.63;101868.22;6278419;22;20020;-61
2022/10/11 03:17:04;;;;;;;10.25;2.25;;;;;;;12.62;70.89;101866.13;6250074;22;20463;-60
2022/10/11 03:19:51;;;;;;;14.88;2.75;;;;;;;12.66;70.45;101869.94;6256262;22;20022;-60
2022/10/11 03:22:21;;;;;;;13.88;2.58;;;;;;;12.85;69.90;101867.97;6250798;22;20026;-61
2022/10/11 03:24:54;;;;;;;12.32;2.30;;;;;;;12.83;69.77;101878.53;6252432;22;20466;-60
2022/10/11 03:27:28;;;;;;;20.70;3.10;;;;;;;12.87;69.27;101874.00;6277108;22;20026;-61
2022/10/11 03:29:56;;;;;;;16.52;2.17;;;;;;;12.65;69.26;101882.94;6277888;22;20018;-60
2022/10/11 03:32:24;;;;;;;18.65;2.65;;;;;;;12.53;70.30;101879.78;6277911;22;20012;-60
2022/10/11 03:34:51;;;;;;;14.07;2.67;;;;;;;12.66;69.68;101887.31;6251535;22;20019;-60
2022/10/11 03:37:19;;;;;;;13.05;2.33;;;;;;;12.63;70.37;101889.88;6250490;22;20015;-61
2022/10/11 03:39:46;;;;;;;16.10;2.15;;;;;;;12.72;69.68;101883.38;6247387;22;20019;-60
2022/10/11 03:42:13;;;;;;;10.57;2.35;;;;;;;12.65;69.70;101888.47;6277841;22;20012;-59
2022/10/11 03:44:41;;;;;;;18.80;3.35;;;;;;;12.68;69.74;101882.31;6249858;22;20037;-60
2022/10/11 03:47:08;;;;;;;15.57;2.47;;;;;;;12.53;69.98;101890.84;6249805;22;20024;-61
2022/10/11 03:49:36;;;;;;;19.33;3.08;;;;;;;12.70;69.70;101884.78;6249162;22;20089;-59
2022/10/11 03:52:09;;;;;;;15.98;2.90;;;;;;;12.50;69.41;101888.66;6249229;22;20016;-60
2022/10/11 03:54:37;;;;;;;15.65;2.65;;;;;;;12.58;70.02;101884.41;6250407;22;20478;-60
2022/10/11 03:57:04;;;;;;;11.60;3.08;;;;;;;12.71;69.54;101883.69;6277733;22;20071;-62
2022/10/11 03:59:31;;;;;;;18.27;2.50;;;;;;;12.66;69.34;101887.31;6225745;22;20019;-61
2022/10/11 04:01:59;;;;;;;16.05;2.55;;;;;;;12.58;69.30;101893.53;6277962;22;20022;-60
2022/10/11 04:04:26;;;;;;;12.23;2.97;;;;;;;12.61;69.29;101892.94;6278271;22;20019;-62
2022/10/11 04:06:53;;;;;;;12.68;2.22;;;;;;;12.41;69.66;101898.75;6277333;22;20020;-61
2022/10/11 04:09:21;;;;;;;15.98;2.90;;;;;;;12.47;69.64;101894.78;6251166;22;20026;-60
2022/10/11 04:11:48;;;;;;;17.58;2.83;;;;;;;12.47;69.33;101894.78;6276572;22;20020;-60
2022/10/11 04:14:16;;;;;;;17.33;2.75;;;;;;;12.27;69.84;101889.56;6250105;22;20023;-60
2022/10/11 04:16:43;;;;;;;15.20;2.85;;;;;;;12.06;70.23;101890.91;6278502;22;20031;-60
2022/10/11 04:19:13;;;;;;;14.18;3.08;;;;;;;12.18;70.31;101896.84;6278063;22;20376;-61
2022/10/11 04:21:40;;;;;;;15.35;3.00;;;;;;;12.36;70.09;101905.16;6249072;22;20025;-60
2022/10/11 04:24:09;;;;;;;12.45;2.70;;;;;;;12.70;68.99;101910.50;6277374;22;20026;-60
2022/10/11 04:26:37;;;;;;;18.00;2.80;;;;;;;12.62;68.64;101907.59;6277525;22;20158;-61
2022/10/11 04:29:05;;;;;;;15.93;3.15;;;;;;;12.57;68.63;101902.13;6250332;22;20273;-61
2022/10/11 04:31:32;;;;;;;14.50;3.13;;;;;;;12.40;69.04;101899.84;6277867;22;20022;-60
2022/10/11 04:33:59;;;;;;;19.65;2.85;;;;;;;12.48;68.88;101905.53;6277714;22;20019;-60
2022/10/11 04:36:27;;;;;;;15.13;2.78;;;;;;;12.39;68.73;101904.59;6250116;22;20023;-61
2022/10/11 04:38:55;;;;;;;12.15;2.75;;;;;;;12.50;68.79;101905.25;6277711;22;20451;-61
2022/10/11 04:41:22;;;;;;;15.85;2.30;;;;;;;12.60;68.38;101912.59;6249129;22;20020;-62
2022/10/11 04:43:49;;;;;;;13.60;2.33;;;;;;;12.22;68.66;101904.22;6277681;22;20034;-61
2022/10/11 04:46:16;;;;;;;14.95;2.58;;;;;;;12.23;68.68;101911.41;6277510;22;20020;-61
2022/10/11 04:48:44;;;;;;;19.85;3.25;;;;;;;12.18;69.38;101905.97;6277860;22;20019;-61
2022/10/11 04:51:11;;;;;;;17.75;2.80;;;;;;;12.26;69.46;101904.47;6250330;22;20019;-60
2022/10/11 04:53:38;;;;;;;12.52;2.60;;;;;;;12.16;69.29;101901.84;6277796;22;20012;-62
2022/10/11 04:56:09;;;;;;;12.07;2.83;;;;;;;12.18;68.95;101908.72;6249726;22;20051;-60
2022/10/11 04:58:39;;;;;;;16.40;2.88;;;;;;;12.11;69.11;101912.94;6277351;22;20054;-60
2022/10/11 05:01:08;;;;;;;17.17;3.08;;;;;;;12.16;69.30;101910.94;6225032;22;20022;-61
2022/10/11 05:03:45;;;;;;;16.08;2.55;;;;;;;12.10;69.18;101916.84;6277971;22;20031;-63
2022/10/11 05:06:29;;;;;;;16.10;2.63;;;;;;;12.12;69.31;101907.13;6278180;22;20486;-63
2022/10/11 05:09:07;;;;;;;16.70;2.80;;;;;;;12.11;69.14;101918.47;6229544;22;20024;-62
2022/10/11 05:11:51;;;;;;;12.15;2.67;;;;;;;12.03;69.43;101908.09;6235219;22;20011;-61
2022/10/11 05:14:30;;;;;;;13.52;3.22;;;;;;;12.02;70.03;101918.31;6253014;22;20016;-61
2022/10/11 05:17:00;;;;;;;16.88;3.38;;;;;;;11.98;69.67;101911.72;6276915;22;20022;-60
2022/10/11 05:19:27;;;;;;;14.13;4.45;;;;;;;11.96;69.83;101915.91;6277587;22;20023;-60
2022/10/11 05:21:54;;;;;;;24.30;6.72;;;;;;;12.17;70.00;101911.75;6224606;22;20122;-61
2022/10/11 05:24:25;;;;;;;24.80;7.15;;;;;;;12.13;69.23;101917.03;6278175;22;20471;-63
2022/10/11 05:26:52;;;;;;;;;;;;;;;12.16;69.08;101905.44;6224273;22;20019;-61
2022/10/11 05:29:19;;;;;;;17.85;3.92;;;;;;;12.00;69.75;101919.69;6277030;22;19915;-60
2022/10/11 05:31:47;;;;;;;20.15;3.85;;;;;;;11.92;69.91;101912.06;6249547;22;20023;-60
2022/10/11 05:34:14;;;;;;;18.10;3.08;;;;;;;12.00;70.21;101919.69;6277697;22;20020;-62
2022/10/11 05:36:41;;;;;;;19.40;4.15;;;;;;;11.89;70.26;101920.94;6277056;22;20019;-61
2022/10/11 05:39:10;;;;;;;17.35;3.05;;;;;;;12.03;70.05;101921.91;6278098;22;20023;-61
2022/10/11 05:41:47;;;;;;;16.75;2.90;;;;;;;11.96;69.87;101922.22;6250687;22;20034;-63
2022/10/11 05:44:15;;;;;;;18.55;3.08;;;;;;;11.65;70.76;101925.59;6210720;22;20070;-61
2022/10/11 05:46:43;;;;;;;22.48;3.33;;;;;;;11.93;70.51;101925.56;6222275;22;20027;-61
2022/10/11 05:49:11;;;;;;;13.27;2.38;;;;;;;11.77;70.29;101926.06;6248821;22;20024;-63
2022/10/11 05:51:43;;;;;;;15.57;2.70;;;;;;;11.86;70.00;101922.34;6276797;22;20023;-61
2022/10/11 05:54:10;;;;;;;15.70;2.72;;;;;;;11.85;70.04;101919.88;6250260;22;20023;-61
2022/10/11 05:56:40;;;;;;;17.77;2.78;;;;;;;11.76;70.44;101927.97;6247336;22;20019;-61
2022/10/11 05:59:08;;;;;;;14.40;2.35;;;;;;;11.74;70.37;101932.13;6249020;22;20030;-61
2022/10/11 06:01:37;;;;;;;18.40;3.13;;;;;;;11.81;70.14;101929.84;6274702;22;20023;-62
2022/10/11 06:04:05;;;;;;;16.58;3.55;;;;;;;11.94;69.62;101924.44;6247199;22;20709;-63
2022/10/11 06:06:33;;;;;;;14.70;2.63;;;;;;;11.92;69.68;101928.63;6249198;22;20023;-62
2022/10/11 06:09:00;;;;;;;15.32;3.30;;;;;;;11.67;70.42;101932.47;6247862;22;20119;-61
2022/10/11 06:11:28;;;;;;;13.75;2.92;;;;;;;11.80;70.07;101926.25;6196507;22;20023;-63
2022/10/11 06:14:00;;;;;;;17.05;2.88;;;;;;;11.87;69.52;101932.25;6252881;22;20018;-62
2022/10/11 06:16:27;;;;;;;18.20;3.80;;;;;;;11.92;69.39;101939.69;6277796;22;20026;-62
2022/10/11 06:18:56;;;;;;;21.10;2.83;;;;;;;11.91;69.03;101936.09;6250456;22;20030;-62
2022/10/11 06:21:24;;;;;;;23.92;3.83;;;;;;;11.86;69.46;101933.38;6277356;22;20030;-61
2022/10/11 06:23:51;;;;;;;20.08;3.10;;;;;;;12.02;68.99;101932.09;6247053;22;20020;-62
2022/10/11 06:26:27;;;;;;;22.55;5.10;;;;;;;12.50;75.79;101949.47;6277700;22;20015;-61
2022/10/11 06:28:55;;;;;;;18.52;3.10;;;;;;;12.40;71.68;101946.81;6278431;22;20026;-62
2022/10/11 06:31:23;;;;;;;22.05;3.58;;;;;;;12.38;73.36;101951.81;6251238;22;20024;-61
2022/10/11 06:33:50;;;;;;;19.05;4.30;;;;;;;12.82;76.17;101954.28;6249054;22;20043;-60
2022/10/11 06:36:17;;;;;;;23.15;4.32;;;;;;;12.54;70.10;101947.75;6223689;22;20055;-63
2022/10/11 06:38:45;;;;;;;17.52;3.03;;;;;;;12.55;69.46;101954.94;6277261;22;20042;-61
2022/10/11 06:41:15;;;;;;;23.80;4.13;;;;;;;12.44;69.58;101957.00;6221636;22;20020;-62
2022/10/11 06:43:43;;;;;;;18.40;4.53;;;;;;;12.67;71.02;101948.97;6276737;22;20027;-60
2022/10/11 06:46:11;;;;;;;21.02;3.03;;;;;;;12.70;70.94;101951.13;6277106;22;20025;-61
2022/10/11 06:48:42;;;;;;;17.85;2.80;;;;;;;12.81;74.16;101947.13;6275105;22;20022;-62
2022/10/11 06:51:10;;;;;;;15.05;3.40;;;;;;;12.94;72.15;101952.72;6275055;22;20023;-62
2022/10/11 06:53:38;;;;;;;14.00;3.75;;;;;;;12.99;69.08;101957.38;6249109;22;20435;-63
2022/10/11 06:56:11;;;;;;;21.48;3.33;;;;;;;12.54;68.09;101956.03;6225120;22;20019;-60
2022/10/11 06:58:39;;;;;;;18.42;3.38;;;;;;;12.91;71.46;101966.31;6277206;22;20020;-61
2022/10/11 07:01:09;;;;;;;14.02;3.50;;;;;;;13.01;71.25;101972.53;6276308;22;20103;-62
2022/10/11 07:03:36;;;;;;;25.02;3.78;;;;;;;12.74;68.26;101957.72;6226188;22;20022;-61
2022/10/11 07:06:19;;;;;;;22.17;3.55;;;;;;;12.63;68.75;101958.97;6277851;22;20024;-61
2022/10/11 07:08:47;;;;;;;17.75;4.57;;;;;;;12.77;70.00;101959.88;6248445;22;20522;-61
2022/10/11 07:11:17;;;;;;;27.30;5.22;;;;;;;12.49;67.87;101964.41;6246860;22;20033;-61
2022/10/11 07:13:53;;;;;;;22.17;3.72;;;;;;;12.56;69.25;101967.63;6248677;22;20015;-63
2022/10/11 07:16:21;;;;;;;17.77;4.38;;;;;;;12.63;69.98;101970.84;6224018;22;20016;-61
2022/10/11 07:18:52;;;;;;;22.58;3.95;;;;;;;12.53;68.61;101975.69;6224691;22;20020;-61
2022/10/11 07:21:27;;;;;;;23.40;2.95;;;;;;;12.44;68.81;101979.13;6251024;22;20027;-66
2022/10/11 07:23:54;;;;;;;19.73;3.00;;;;;;;12.89;70.88;101974.91;6245406;22;20019;-62
2022/10/11 07:26:21;;;;;;;18.02;3.25;;;;;;;13.07;67.83;101978.84;6277487;22;20019;-62
2022/10/11 07:28:49;;;;;;;11.70;2.92;;;;;;;12.84;66.65;101980.53;6274577;22;20020;-61
2022/10/11 07:31:19;;;;;;;20.02;3.70;;;;;;;12.77;67.97;101979.22;6275488;22;20035;-61
2022/10/11 07:33:47;;;;;;;18.42;3.85;;;;;;;13.26;70.22;101993.47;6246820;22;20396;-61
2022/10/11 07:36:15;;;;;;;16.38;3.75;;;;;;;13.49;65.89;101990.59;6223087;22;20031;-60
2022/10/11 07:38:44;;;;;;;19.20;3.47;;;;;;;12.84;63.91;101986.06;6275845;22;20073;-61
2022/10/11 07:41:12;;;;;;;23.98;4.70;;;;;;;12.77;64.43;101993.91;6275090;22;20019;-62
2022/10/11 07:43:39;;;;;;;24.05;5.50;;;;;;;12.74;64.62;101986.19;6276210;22;20033;-62
2022/10/11 07:46:06;;;;;;;26.63;5.07;;;;;;;12.62;64.91;101993.28;6247513;22;20019;-62
2022/10/11 07:48:35;;;;;;;21.58;4.20;;;;;;;12.46;64.66;101995.41;6276707;22;20019;-62
2022/10/11 07:51:09;;;;;;;14.45;3.47;;;;;;;12.52;63.84;101996.16;6249293;22;20019;-62
2022/10/11 07:53:41;;;;;;;37.95;3.75;;;;;;;12.29;64.58;102006.91;6276917;22;20020;-62
2022/10/11 07:56:11;;;;;;;26.52;3.58;;;;;;;12.29;64.80;102006.13;6250272;22;20087;-62
2022/10/11 07:58:39;;;;;;;16.60;3.72;;;;;;;12.29;64.90;102008.88;6276599;22;20019;-62
2022/10/11 08:01:07;;;;;;;21.10;3.70;;;;;;;12.33;64.67;102016.28;6247897;22;20038;-62
2022/10/11 08:03:35;;;;;;;17.77;3.40;;;;;;;12.21;64.74;102015.03;6223126;22;20016;-61
2022/10/11 08:06:05;;;;;;;24.48;4.22;;;;;;;12.17;65.14;102017.53;6222808;22;20031;-62
2022/10/11 08:08:34;;;;;;;12.90;2.63;;;;;;;12.21;65.02;102021.38;6274830;22;20114;-62
2022/10/11 08:11:02;;;;;;;12.40;2.90;;;;;;;12.25;64.64;102019.69;6273930;22;20463;-62
2022/10/11 08:13:29;;;;;;;19.10;3.08;;;;;;;12.51;64.97;102011.09;6275078;22;20019;-62
2022/10/11 08:15:57;;;;;;;15.02;2.80;;;;;;;12.32;63.71;102020.16;6275649;22;20423;-62
2022/10/11 08:18:25;;;;;;;20.35;3.42;;;;;;;12.15;64.73;102014.25;6275862;22;20045;-63
2022/10/11 08:20:52;;;;;;;21.10;3.78;;;;;;;12.25;64.80;102024.38;6249390;22;20555;-62
2022/10/11 08:23:19;;;;;;;19.55;3.55;;;;;;;12.09;65.12;102026.47;6249863;22;20037;-61
2022/10/11 08:25:47;;;;;;;16.92;3.33;;;;;;;12.02;65.46;102019.66;6246955;22;20016;-62
2022/10/11 08:28:16;;;;;;;21.45;2.97;;;;;;;12.10;65.12;102030.06;6276583;22;20020;-62
2022/10/11 08:30:51;;;;;;;16.83;3.55;;;;;;;12.04;65.58;102036.75;6276030;22;20023;-62
2022/10/11 08:33:21;;;;;;;21.02;3.67;;;;;;;12.06;65.66;102027.06;6249899;22;20016;-66
2022/10/11 08:35:50;;;;;;;18.17;3.97;;;;;;;12.07;66.13;102036.16;6274921;22;20034;-62
2022/10/11 08:38:18;;;;;;;16.90;3.67;;;;;;;12.01;66.40;102029.06;6276639;22;20016;-62
2022/10/11 08:41:13;;;;;;;19.42;3.88;;;;;;;11.96;66.50;102034.63;6220702;22;20019;-61
2022/10/11 08:43:55;;;;;;;15.27;3.22;;;;;;;11.97;66.62;102034.34;6248589;22;20019;-61
2022/10/11 08:46:29;;;;;;;15.63;3.45;;;;;;;12.04;66.23;102029.28;6248315;22;20027;-63
2022/10/11 08:48:57;;;;;;;16.63;3.78;;;;;;;12.25;65.72;102032.66;6276254;22;20331;-61
2022/10/11 08:51:58;;;;;;;19.58;3.45;;;;;;;12.25;65.46;102038.19;6249252;22;20031;-62
2022/10/11 08:54:34;;;;;;;26.80;4.82;;;;;;;12.41;64.79;102039.69;6222585;22;20027;-62
2022/10/11 08:57:04;;;;;;;21.30;4.63;;;;;;;12.56;63.88;102031.19;6275583;22;20031;-61
2022/10/11 08:59:43;;;;;;;21.55;3.75;;;;;;;12.43;64.00;102042.94;6276061;22;20343;-62
2022/10/11 09:02:31;;;;;;;19.77;4.10;;;;;;;12.36;64.03;102051.59;6249760;22;20030;-62
2022/10/11 09:05:19;;;;;;;23.38;4.53;;;;;;;12.43;63.86;102042.94;6253192;22;20012;-62
2022/10/11 09:08:25;;;;;;;24.17;5.35;;;;;;;12.34;63.88;102048.28;6248583;22;20042;-62
2022/10/11 09:11:13;;;;;;;28.45;4.35;;;;;;;12.31;64.21;102050.81;6233208;22;20024;-62
2022/10/11 09:13:52;;;;;;;19.88;4.80;;;;;;;12.25;64.42;102041.78;6260733;22;20016;-61
2022/10/11 09:16:45;;;;;;;23.60;4.63;;;;;;;12.48;64.09;102034.63;6276026;22;20012;-62
2022/10/11 09:19:36;;;;;;;15.13;3.38;;;;;;;12.62;63.84;102041.09;6275509;22;20864;-62
2022/10/11 09:22:21;;;;;;;;;;;;;;;12.78;63.26;102041.72;6249135;22;20025;-61
2022/10/11 09:25:10;;;;;;;15.07;3.40;;;;;;;12.68;63.20;102045.44;6249747;22;19915;-62
2022/10/11 09:27:51;;;;;;;17.98;3.67;;;;;;;12.50;63.56;102037.91;6248455;22;20347;-63
2022/10/11 09:30:30;;;;;;;16.70;3.20;;;;;;;12.61;63.49;102031.13;6274460;22;20024;-62
2022/10/11 09:33:06;;;;;;;21.00;4.38;;;;;;;12.60;63.42;102028.66;6276014;22;20016;-63
2022/10/11 09:35:45;;;;;;;17.67;4.30;;;;;;;12.69;63.80;102030.50;6247716;22;20076;-62
2022/10/11 09:38:23;;;;;;;24.05;3.92;;;;;;;12.81;63.35;102033.66;6274630;22;20019;-63
2022/10/11 09:40:59;;;;;;;16.15;3.63;;;;;;;12.71;63.41;102039.28;6244659;22;20020;-62
2022/10/11 09:43:26;;;;;;;18.70;3.45;;;;;;;12.81;63.32;102027.31;6248013;22;20301;-62
2022/10/11 09:45:54;;;;;;;18.98;3.70;;;;;;;13.17;63.01;102028.47;6245044;22;20320;-61
2022/10/11 09:48:33;;;;;;;16.33;3.80;;;;;;;13.42;63.72;102022.56;6277047;22;20019;-62
2022/10/11 09:51:05;;;;;;;17.30;3.38;;;;;;;13.60;63.17;102012.59;6275674;22;20016;-64
2022/10/11 09:53:59;;;;;;;21.58;3.95;;;;;;;13.51;63.30;102013.28;6223595;22;20022;-62
2022/10/11 09:56:28;;;;;;;13.73;3.40;;;;;;;13.68;65.65;102007.19;6277211;22;20016;-62
2022/10/11 09:59:07;;;;;;;19.50;3.92;;;;;;;13.80;61.97;102015.00;6251461;22;20085;-61
2022/10/11 10:01:35;;;;;;;20.83;4.13;;;;;;;13.69;62.42;102013.53;6275742;22;20035;-61
2022/10/11 10:04:11;;;;;;;18.17;3.45;;;;;;;13.74;63.10;102008.72;6250330;22;20036;-62
2022/10/11 10:06:39;;;;;;;14.30;4.05;;;;;;;14.00;63.33;102004.38;6277756;22;20027;-63
2022/10/11 10:09:29;;;;;;;21.67;4.57;;;;;;;13.44;63.09;102012.03;6277902;22;20106;-61
2022/10/11 10:11:57;;;;;;;19.55;4.53;;;;;;;13.46;64.29;102010.59;6235406;22;20023;-62
2022/10/11 10:14:27;;;;;;;21.42;5.03;;;;;;;13.86;63.58;102011.84;6277149;22;20023;-61
2022/10/11 10:17:03;;;;;;;18.75;4.13;;;;;;;13.98;64.92;102009.41;6250174;22;20414;-63
2022/10/11 10:19:47;;;;;;;19.60;5.47;;;;;;;14.26;64.64;102002.81;6277615;22;20020;-63
2022/10/11 10:22:18;;;;;;;14.13;3.65;;;;;;;14.19;62.40;102009.88;6250352;22;20031;-62
2022/10/11 10:24:48;;;;;;;14.73;3.95;;;;;;;14.28;62.94;102006.09;6276507;22;20316;-62
2022/10/11 10:27:27;;;;;;;15.40;3.80;;;;;;;14.33;62.32;102005.19;6276771;22;20190;-62
2022/10/11 10:30:13;;;;;;;14.45;3.75;;;;;;;14.11;61.98;102002.25;6249819;22;20011;-61
2022/10/11 10:32:58;;;;;;;22.25;4.75;;;;;;;14.13;63.25;102009.16;6249269;22;20344;-62
2022/10/11 10:35:31;;;;;;;20.35;4.35;;;;;;;14.05;62.45;102004.28;6249858;22;20015;-62
2022/10/11 10:38:16;;;;;;;17.38;4.15;;;;;;;14.01;62.27;102003.28;6249473;22;20129;-61
2022/10/11 10:40:53;;;;;;;;;;;;;;;14.19;62.17;102004.34;6277417;22;20020;-62
2022/10/11 10:43:25;;;;;;;14.15;4.05;;;;;;;14.26;62.03;102010.31;6229550;23;20415;-62
2022/10/11 10:46:18;;;;;;;16.27;4.30;;;;;;;14.23;61.63;102008.13;6190648;23;20032;-62
2022/10/11 10:48:48;;;;;;;15.07;4.82;;;;;;;14.36;61.65;102012.91;6189833;23;20017;-62
2022/10/11 10:51:35;;;;;;;;;;;;;;;14.37;61.85;102003.44;6215946;23;20016;-61
2022/10/11 10:54:22;;;;;;;20.23;4.72;;;;;;;14.18;62.29;102003.50;6216941;23;20260;-62
2022/10/11 10:56:49;;;;;;;26.80;8.40;;;;;;;14.31;61.71;102001.91;6189743;23;20036;-61
2022/10/11 10:59:22;;;;;;;27.92;8.43;;;;;;;14.39;63.07;102001.19;6214583;23;20353;-60
2022/10/11 11:01:59;;;;;;;19.00;5.93;;;;;;;14.42;62.24;101993.06;6212249;23;20028;-61
2022/10/11 11:05:03;;;;;;;20.40;5.10;;;;;;;14.65;61.75;102002.31;6192430;23;20025;-61
2022/10/11 11:08:01;;;;;;;16.73;5.57;;;;;;;14.66;61.72;102003.97;6185531;23;20020;-61
2022/10/11 11:10:58;;;;;;;19.83;4.72;;;;;;;14.62;61.57;101994.59;6187800;23;20058;-61
2022/10/11 11:13:46;;;;;;;17.77;4.72;;;;;;;14.98;61.66;101992.69;6201693;23;20027;-60
2022/10/11 11:16:24;;;;;;;11.70;4.15;;;;;;;14.94;60.29;101997.22;6215837;23;20081;-61
2022/10/11 11:19:22;;;;;;;16.13;3.90;;;;;;;14.90;60.33;101990.66;6165043;23;20016;-61
2022/10/11 11:22:12;;;;;;;15.40;3.85;;;;;;;15.29;60.32;101982.53;6188315;23;20495;-61
2022/10/11 11:24:51;;;;;;;13.43;3.95;;;;;;;15.24;59.39;101982.66;6216356;23;20085;-60
2022/10/11 11:28:16;;;;;;;15.65;4.20;;;;;;;15.33;60.00;101972.44;6215392;23;20013;-62
2022/10/11 11:31:05;;;;;;;14.57;4.07;;;;;;;15.41;58.82;101973.69;6040036;23;20019;-61
2022/10/11 11:33:46;;;;;;;14.60;3.97;;;;;;;15.62;58.48;101981.16;6063958;23;20144;-61
2022/10/11 11:36:20;;;;;;;12.35;3.78;;;;;;;15.43;58.46;101974.19;6147399;23;20017;-61
2022/10/11 11:39:02;;;;;;;15.57;3.95;;;;;;;15.32;58.59;101976.34;6188219;23;20020;-62
2022/10/11 11:41:36;;;;;;;9.07;3.70;;;;;;;15.22;58.92;101976.59;6215214;23;20017;-62
2022/10/11 11:44:10;;;;;;;15.48;5.45;;;;;;;15.40;58.35;101966.47;6228558;22;20455;-62
2022/10/11 11:47:02;;;;;;;19.55;4.43;;;;;;;15.37;58.46;101958.75;6224608;22;20537;-61